Time;durP1;ratioP1;P1;durP2;ratioP2;P2;SDS_P1;SDS_P2;PMS_P1;PMS_P2;Temp;Humidity;BMP_temperature;BMP_pressure;BME280_temperature;BME280_humidity;BME280_pressure;Samples;Min_cycle;Max_cycle;Signal;HPM_P1;HPM_P2
2023/09/20 00:00:27;;;;;;;7.68;2.30;;;;;;;16.57;85.36;100734.56;7392555;19;20302;-65
2023/09/20 00:02:56;;;;;;;4.45;1.63;;;;;;;16.56;85.58;100716.56;7393199;19;19930;-64
2023/09/20 00:05:26;;;;;;;5.90;1.70;;;;;;;16.57;85.46;100701.91;7393783;19;19958;-65
2023/09/20 00:07:58;;;;;;;11.68;2.45;;;;;;;16.55;86.11;100723.03;7395058;19;19982;-64
2023/09/20 00:10:27;;;;;;;4.57;1.70;;;;;;;16.52;86.63;100715.34;7393220;19;19915;-64
2023/09/20 00:12:56;;;;;;;6.07;2.05;;;;;;;16.50;86.31;100703.00;7394805;19;19926;-64
2023/09/20 00:15:24;;;;;;;6.32;2.20;;;;;;;16.47;86.63;100717.03;7394207;19;20299;-64
2023/09/20 00:18:13;;;;;;;3.67;1.80;;;;;;;16.43;87.41;100722.09;7389542;19;19919;-65
2023/09/20 00:20:42;;;;;;;4.95;1.90;;;;;;;16.41;87.21;100694.25;7400521;19;19922;-64
2023/09/20 00:23:17;;;;;;;6.70;2.47;;;;;;;16.38;87.96;100716.47;7400456;19;19923;-64
2023/09/20 00:25:46;;;;;;;5.57;2.40;;;;;;;16.37;87.75;100722.09;7402323;19;19922;-64
2023/09/20 00:28:17;;;;;;;3.70;1.60;;;;;;;16.33;88.18;100722.56;7399673;19;20392;-65
2023/09/20 00:30:47;;;;;;;8.32;2.25;;;;;;;16.30;88.58;100716.72;7400247;19;19927;-64
2023/09/20 00:33:16;;;;;;;7.18;2.35;;;;;;;16.27;88.65;100723.41;7395595;19;19929;-64
2023/09/20 00:35:45;;;;;;;3.17;1.70;;;;;;;16.25;88.76;100717.38;7400256;19;19924;-65
2023/09/20 00:38:18;;;;;;;7.60;2.45;;;;;;;16.24;89.47;100718.41;7398842;19;19932;-64
2023/09/20 00:40:47;;;;;;;8.13;3.67;;;;;;;16.21;89.72;100718.88;7401526;19;19929;-64
2023/09/20 00:43:16;;;;;;;5.88;1.92;;;;;;;16.19;89.30;100718.22;7401060;19;19934;-64
2023/09/20 00:45:45;;;;;;;6.72;2.35;;;;;;;16.19;89.39;100709.25;7400573;19;19926;-64
2023/09/20 00:48:15;;;;;;;6.63;2.20;;;;;;;16.18;89.61;100732.06;7400348;19;20127;-65
2023/09/20 00:50:44;;;;;;;8.65;2.63;;;;;;;16.20;89.66;100716.34;7399008;19;19914;-65
2023/09/20 00:53:16;;;;;;;6.75;2.75;;;;;;;16.23;89.39;100713.19;7401372;19;19923;-64
2023/09/20 00:55:46;;;;;;;9.95;2.70;;;;;;;16.24;89.05;100715.69;7399839;19;19940;-65
2023/09/20 00:58:17;;;;;;;7.13;2.88;;;;;;;16.27;88.80;100720.69;7399035;19;19926;-65
2023/09/20 01:00:52;;;;;;;6.90;2.55;;;;;;;16.30;88.37;100717.56;7400417;19;19926;-65
2023/09/20 01:03:21;;;;;;;5.97;2.53;;;;;;;16.33;88.51;100703.53;7395162;19;20393;-64
2023/09/20 01:05:50;;;;;;;6.80;2.42;;;;;;;16.39;88.15;100712.69;7378077;19;20432;-65
2023/09/20 01:08:22;;;;;;;7.82;2.40;;;;;;;16.42;87.77;100712.25;7375354;19;19918;-65
2023/09/20 01:10:52;;;;;;;10.65;2.78;;;;;;;16.47;87.61;100717.03;7382835;19;20435;-64
2023/09/20 01:13:22;;;;;;;8.50;2.60;;;;;;;16.50;87.44;100711.97;7401881;19;19919;-64
2023/09/20 01:15:50;;;;;;;6.28;2.75;;;;;;;16.52;87.35;100711.78;7402125;19;19926;-64
2023/09/20 01:18:19;;;;;;;7.38;2.40;;;;;;;16.54;87.26;100715.94;7399650;19;19927;-64
2023/09/20 01:21:07;;;;;;;7.25;2.55;;;;;;;16.57;87.02;100712.78;7397628;19;19985;-64
2023/09/20 01:23:42;;;;;;;7.50;2.28;;;;;;;16.59;86.62;100718.03;7397266;19;19948;-65
2023/09/20 01:26:11;;;;;;;12.50;2.63;;;;;;;16.60;86.69;100706.09;7397760;19;19994;-65
2023/09/20 01:28:41;;;;;;;7.35;2.38;;;;;;;16.60;86.71;100714.25;7393859;19;20008;-65
2023/09/20 01:31:10;;;;;;;7.90;2.63;;;;;;;16.60;86.54;100706.94;7394034;19;20343;-64
2023/09/20 01:33:39;;;;;;;9.80;2.25;;;;;;;16.61;86.29;100707.78;7398037;19;19942;-64
2023/09/20 01:36:07;;;;;;;7.70;2.70;;;;;;;16.62;86.26;100715.69;7397693;19;19923;-64
2023/09/20 01:38:39;;;;;;;7.05;2.45;;;;;;;16.64;86.06;100719.03;7400252;19;19930;-64
2023/09/20 01:41:08;;;;;;;8.52;2.80;;;;;;;16.66;86.12;100710.63;7400695;19;19915;-64
2023/09/20 01:43:38;;;;;;;8.57;2.10;;;;;;;16.66;86.00;100702.47;7395671;19;19937;-64
2023/09/20 01:46:07;;;;;;;4.03;2.30;;;;;;;16.65;85.98;100693.47;7398371;19;20351;-65
2023/09/20 01:48:58;;;;;;;5.93;1.92;;;;;;;16.65;85.98;100707.09;7397619;19;19926;-65
2023/09/20 01:51:27;;;;;;;4.90;2.03;;;;;;;16.65;85.40;100704.38;7398714;19;19943;-65
2023/09/20 01:53:59;;;;;;;8.07;2.47;;;;;;;16.65;85.37;100701.63;7398277;19;19968;-65
2023/09/20 01:56:28;;;;;;;11.48;3.22;;;;;;;16.64;85.58;100699.16;7397534;19;20379;-65
2023/09/20 01:59:17;;;;;;;8.10;2.35;;;;;;;16.64;85.42;100699.16;7397205;19;19923;-64
2023/09/20 02:01:48;;;;;;;9.85;2.03;;;;;;;16.67;85.09;100698.72;7399240;19;19922;-65
2023/09/20 02:04:18;;;;;;;11.18;1.90;;;;;;;16.68;84.97;100705.81;7394512;19;19918;-64
2023/09/20 02:06:48;;;;;;;7.57;1.75;;;;;;;16.69;84.91;100707.50;7398256;19;19934;-66
2023/09/20 02:09:19;;;;;;;6.22;1.90;;;;;;;16.70;84.47;100696.38;7397388;19;19918;-65
2023/09/20 02:11:48;;;;;;;7.93;1.73;;;;;;;16.69;84.88;100683.84;7399535;19;19939;-65
2023/09/20 02:14:18;;;;;;;4.70;1.75;;;;;;;16.71;84.59;100691.78;7396571;19;19932;-64
2023/09/20 02:16:46;;;;;;;7.80;2.08;;;;;;;16.71;84.18;100691.78;7399167;19;19918;-65
2023/09/20 02:19:19;;;;;;;7.55;2.03;;;;;;;16.73;84.37;100689.69;7396796;19;19938;-64
2023/09/20 02:21:48;;;;;;;6.90;2.85;;;;;;;16.72;84.40;100690.72;7398489;19;19918;-64
2023/09/20 02:24:19;;;;;;;6.15;2.38;;;;;;;16.74;83.87;100683.16;7396743;19;19986;-64
2023/09/20 02:26:49;;;;;;;6.78;1.80;;;;;;;16.75;83.72;100682.13;7398123;19;19919;-64
2023/09/20 02:29:22;;;;;;;11.48;2.97;;;;;;;16.76;83.95;100691.94;7397616;19;19919;-65
2023/09/20 02:31:51;;;;;;;5.10;1.65;;;;;;;16.75;83.57;100688.38;7397776;19;19922;-64
2023/09/20 02:34:20;;;;;;;7.63;2.13;;;;;;;16.77;83.59;100685.47;7394045;19;19929;-65
2023/09/20 02:36:49;;;;;;;4.20;1.90;;;;;;;16.77;83.84;100685.47;7398332;19;19929;-65
2023/09/20 02:39:20;;;;;;;6.60;1.98;;;;;;;16.79;83.45;100683.34;7397523;19;19930;-63
2023/09/20 02:41:48;;;;;;;6.75;1.92;;;;;;;16.79;83.44;100680.63;7396528;19;19914;-65
2023/09/20 02:44:17;;;;;;;8.07;2.10;;;;;;;16.77;83.12;100672.69;7395460;19;20337;-65
2023/09/20 02:46:48;;;;;;;4.80;1.77;;;;;;;16.78;83.19;100674.34;7394603;19;20290;-65
2023/09/20 02:49:16;;;;;;;9.18;1.90;;;;;;;16.80;82.90;100674.13;7397816;19;19922;-64
2023/09/20 02:51:47;;;;;;;5.28;2.17;;;;;;;16.81;82.97;100680.41;7398211;19;19927;-64
2023/09/20 02:54:17;;;;;;;5.88;2.17;;;;;;;16.82;83.10;100682.91;7397429;19;19935;-64
2023/09/20 02:56:51;;;;;;;6.82;1.80;;;;;;;16.83;82.96;100681.81;7397691;19;19986;-64
2023/09/20 02:59:20;;;;;;;5.97;2.20;;;;;;;16.82;83.31;100680.19;7394683;19;19993;-65
2023/09/20 03:01:49;;;;;;;5.65;1.83;;;;;;;16.83;83.05;100672.88;7396078;19;19947;-65
2023/09/20 03:04:18;;;;;;;6.18;2.10;;;;;;;16.82;82.86;100674.75;7394985;19;20416;-65
2023/09/20 03:06:47;;;;;;;7.57;1.90;;;;;;;16.84;82.67;100682.66;7396379;19;19922;-65
2023/09/20 03:09:16;;;;;;;6.10;1.60;;;;;;;16.83;82.63;100661.97;7394606;19;21768;-65
2023/09/20 03:11:46;;;;;;;4.72;1.52;;;;;;;16.82;82.83;100666.59;7398934;19;19951;-65
2023/09/20 03:14:17;;;;;;;6.75;1.95;;;;;;;16.82;82.61;100663.88;7396842;19;20336;-65
2023/09/20 03:16:46;;;;;;;4.40;1.55;;;;;;;16.82;82.75;100660.31;7394879;19;19974;-65
2023/09/20 03:19:14;;;;;;;6.65;2.33;;;;;;;16.82;82.60;100647.53;7396956;19;19988;-64
2023/09/20 03:21:46;;;;;;;5.65;1.92;;;;;;;16.80;82.56;100660.53;7397307;19;19930;-64
2023/09/20 03:24:14;;;;;;;2.85;1.58;;;;;;;16.78;82.19;100663.44;7397339;19;19930;-64
2023/09/20 03:26:44;;;;;;;6.95;1.40;;;;;;;16.79;82.24;100670.56;7395336;19;19922;-65
2023/09/20 03:29:12;;;;;;;4.35;1.60;;;;;;;16.79;82.11;100664.28;7396022;19;19942;-65
2023/09/20 03:31:44;;;;;;;10.75;2.30;;;;;;;16.82;82.16;100652.97;7396464;19;20348;-64
2023/09/20 03:34:14;;;;;;;4.30;1.85;;;;;;;16.83;81.97;100664.69;7392502;19;19955;-64
2023/09/20 03:36:43;;;;;;;3.45;1.40;;;;;;;16.83;82.41;100646.47;7395834;19;19926;-64
2023/09/20 03:39:14;;;;;;;4.82;1.50;;;;;;;16.81;82.43;100659.47;7394962;19;19930;-65
2023/09/20 03:41:42;;;;;;;11.60;2.33;;;;;;;16.83;82.52;100649.19;7396761;19;20365;-64
2023/09/20 03:44:14;;;;;;;6.68;1.50;;;;;;;16.82;82.05;100674.75;7394316;19;19926;-64
2023/09/20 03:46:45;;;;;;;6.35;2.28;;;;;;;16.82;81.98;100666.59;7394953;19;19937;-65
2023/09/20 03:49:14;;;;;;;6.88;2.08;;;;;;;16.82;82.28;100647.53;7395959;19;19926;-65
2023/09/20 03:51:45;;;;;;;6.30;1.88;;;;;;;16.83;82.03;100649.19;7394786;19;20156;-65
2023/09/20 03:54:16;;;;;;;9.18;2.15;;;;;;;16.84;82.49;100672.63;7397120;19;19929;-65
2023/09/20 03:56:45;;;;;;;8.13;1.95;;;;;;;16.84;82.36;100650.00;7398406;19;20052;-64
2023/09/20 03:59:17;;;;;;;6.75;2.20;;;;;;;16.83;82.29;100646.47;7401999;19;19919;-65
2023/09/20 04:01:48;;;;;;;9.43;2.90;;;;;;;16.83;82.46;100643.75;7401896;19;19923;-65
2023/09/20 04:04:17;;;;;;;5.28;2.03;;;;;;;16.83;82.16;100661.97;7394882;19;19919;-65
2023/09/20 04:06:47;;;;;;;6.20;2.38;;;;;;;16.83;82.24;100664.69;7399912;19;19922;-65
2023/09/20 04:09:15;;;;;;;7.10;2.22;;;;;;;16.82;82.32;100647.53;7399892;19;20341;-64
2023/09/20 04:11:44;;;;;;;6.65;1.92;;;;;;;16.83;82.33;100645.66;7401802;19;19932;-65
2023/09/20 04:14:13;;;;;;;4.80;1.95;;;;;;;16.82;82.25;100642.09;7401002;19;19926;-64
2023/09/20 04:17:05;;;;;;;6.93;1.83;;;;;;;16.81;81.79;100640.44;7397984;19;19919;-65
2023/09/20 04:19:34;;;;;;;4.57;1.75;;;;;;;16.82;82.03;100642.09;7398660;19;19935;-65
2023/09/20 04:22:04;;;;;;;5.53;1.95;;;;;;;16.82;82.05;100635.81;7400918;19;19918;-64
2023/09/20 04:24:33;;;;;;;4.18;1.98;;;;;;;16.82;82.23;100639.38;7400893;19;19926;-65
2023/09/20 04:27:02;;;;;;;8.15;2.28;;;;;;;16.82;81.85;100638.53;7400795;19;19926;-65
2023/09/20 04:29:31;;;;;;;8.18;2.58;;;;;;;16.81;82.19;100635.00;7399855;19;19930;-65
2023/09/20 04:32:01;;;;;;;5.78;2.10;;;;;;;16.83;82.20;100640.22;7400114;19;19935;-65
2023/09/20 04:34:32;;;;;;;7.55;2.10;;;;;;;16.83;81.71;100654.63;7396830;19;19939;-64
2023/09/20 04:37:01;;;;;;;5.75;2.45;;;;;;;16.82;81.66;100636.66;7400936;19;19919;-64
2023/09/20 04:39:30;;;;;;;6.03;2.30;;;;;;;16.83;81.88;100638.28;7398308;19;19962;-65
2023/09/20 04:41:59;;;;;;;7.25;1.50;;;;;;;16.81;82.01;100645.88;7399165;19;19934;-65
2023/09/20 04:44:27;;;;;;;17.15;2.40;;;;;;;16.77;82.22;100644.66;7398245;19;19967;-64
2023/09/20 04:46:57;;;;;;;5.13;1.73;;;;;;;16.74;82.15;100640.47;7401098;19;19918;-65
2023/09/20 04:49:26;;;;;;;8.68;2.00;;;;;;;16.68;82.40;100640.53;7398700;19;19922;-65
2023/09/20 04:52:00;;;;;;;6.00;1.92;;;;;;;16.62;82.11;100642.25;7399278;19;19930;-64
2023/09/20 04:54:29;;;;;;;3.60;1.70;;;;;;;16.57;82.52;100639.38;7398232;19;20254;-64
2023/09/20 04:56:57;;;;;;;5.80;2.10;;;;;;;16.49;83.05;100642.31;7399377;19;20235;-65
2023/09/20 04:59:26;;;;;;;4.85;2.03;;;;;;;16.43;83.11;100642.41;7398420;19;20341;-65
2023/09/20 05:01:54;;;;;;;7.80;2.10;;;;;;;16.33;82.97;100638.28;7398666;19;19918;-64
2023/09/20 05:04:23;;;;;;;7.80;1.90;;;;;;;16.27;83.16;100650.00;7394863;19;19959;-65
2023/09/20 05:06:53;;;;;;;4.30;2.05;;;;;;;16.19;83.54;100633.97;7398133;19;19919;-64
2023/09/20 05:09:24;;;;;;;6.90;1.92;;;;;;;16.15;83.49;100638.19;7401672;19;20572;-64
2023/09/20 05:11:52;;;;;;;5.32;1.90;;;;;;;16.10;83.47;100642.59;7396411;19;19956;-65
2023/09/20 05:14:21;;;;;;;4.93;1.60;;;;;;;16.06;83.77;100642.22;7394084;19;19922;-64
2023/09/20 05:17:09;;;;;;;3.75;1.67;;;;;;;16.00;84.17;100656.69;7399502;19;19923;-65
2023/09/20 05:19:39;;;;;;;8.20;1.83;;;;;;;15.97;84.09;100645.41;7397807;19;20341;-65
2023/09/20 05:22:08;;;;;;;4.70;1.63;;;;;;;15.94;83.71;100643.97;7400147;19;19919;-64
2023/09/20 05:24:39;;;;;;;6.45;2.42;;;;;;;15.91;83.88;100651.72;7399798;19;19940;-64
2023/09/20 05:27:08;;;;;;;10.13;2.60;;;;;;;15.88;84.25;100639.38;7401428;19;19943;-64
2023/09/20 05:29:36;;;;;;;5.80;1.95;;;;;;;15.86;84.24;100644.22;7396632;19;19930;-65
2023/09/20 05:32:07;;;;;;;4.43;1.60;;;;;;;15.86;84.46;100633.34;7394555;19;19922;-65
2023/09/20 05:34:38;;;;;;;7.80;1.88;;;;;;;15.84;84.31;100635.44;7394485;19;19930;-64
2023/09/20 05:37:07;;;;;;;5.20;1.90;;;;;;;15.82;84.33;100646.53;7394580;19;19989;-64
2023/09/20 05:39:39;;;;;;;5.78;1.58;;;;;;;15.82;84.09;100634.84;7394666;19;19922;-64
2023/09/20 05:42:08;;;;;;;6.97;2.17;;;;;;;15.80;84.51;100634.19;7399647;19;19942;-64
2023/09/20 05:44:36;;;;;;;7.57;1.65;;;;;;;15.79;84.42;100635.28;7399874;19;19979;-64
2023/09/20 05:47:25;;;;;;;3.63;1.63;;;;;;;15.78;84.44;100634.44;7392829;19;19918;-64
2023/09/20 05:50:14;;;;;;;5.53;2.20;;;;;;;15.78;84.40;100633.59;7396936;19;20051;-64
2023/09/20 05:52:43;;;;;;;6.65;1.70;;;;;;;15.77;84.59;100637.38;7397751;19;19930;-64
2023/09/20 05:55:16;;;;;;;5.63;1.75;;;;;;;15.76;84.47;100630.25;7400380;19;19923;-65
2023/09/20 05:57:44;;;;;;;6.53;1.77;;;;;;;15.76;84.43;100643.84;7394864;19;19918;-64
2023/09/20 06:00:18;;;;;;;5.43;1.98;;;;;;;15.77;84.13;100654.50;7397951;19;20328;-64
2023/09/20 06:02:47;;;;;;;4.85;1.95;;;;;;;15.76;84.45;100643.84;7391913;19;19924;-63
2023/09/20 06:05:18;;;;;;;5.32;1.60;;;;;;;15.77;84.16;100649.06;7392211;19;19941;-64
2023/09/20 06:07:47;;;;;;;5.53;1.60;;;;;;;15.77;84.65;100646.34;7398132;19;19930;-64
2023/09/20 06:10:19;;;;;;;6.22;2.00;;;;;;;15.79;83.98;100643.44;7400111;19;19922;-64
2023/09/20 06:12:48;;;;;;;6.78;1.67;;;;;;;15.81;84.37;100649.47;7397826;19;19963;-64
2023/09/20 06:15:16;;;;;;;5.18;1.75;;;;;;;15.83;84.03;100658.25;7398835;19;19923;-64
2023/09/20 06:17:47;;;;;;;3.08;1.92;;;;;;;15.86;84.05;100653.19;7396572;19;19926;-64
2023/09/20 06:20:37;;;;;;;6.57;1.90;;;;;;;15.90;83.87;100661.75;7391438;19;19933;-64
2023/09/20 06:23:06;;;;;;;5.05;1.77;;;;;;;15.93;83.92;100647.72;7395377;19;19922;-64
2023/09/20 06:25:37;;;;;;;3.97;1.75;;;;;;;15.99;83.67;100659.59;7398804;19;19922;-64
2023/09/20 06:28:09;;;;;;;7.15;1.70;;;;;;;16.01;83.57;100655.63;7396185;19;19947;-64
2023/09/20 06:30:37;;;;;;;10.23;2.70;;;;;;;16.04;83.75;100655.19;7398055;19;19934;-63
2023/09/20 06:33:08;;;;;;;6.28;2.03;;;;;;;16.10;83.22;100659.75;7393241;19;19926;-63
2023/09/20 06:35:43;;;;;;;2.65;1.50;;;;;;;16.12;83.30;100663.09;7398185;19;19926;-65
2023/09/20 06:38:11;;;;;;;5.28;1.95;;;;;;;16.15;83.10;100648.22;7395870;19;19966;-64
2023/09/20 06:40:43;;;;;;;3.40;1.27;;;;;;;16.17;82.88;100668.72;7396969;19;19989;-64
2023/09/20 06:43:14;;;;;;;;;;;;;;;16.09;83.95;100660.78;7400611;19;20293;-64
2023/09/20 06:45:50;;;;;;;5.90;1.77;;;;;;;16.19;82.99;100661.16;7398416;19;19919;-64
2023/09/20 06:48:20;;;;;;;5.00;1.48;;;;;;;16.24;83.04;100660.50;7398380;19;19944;-64
2023/09/20 06:50:50;;;;;;;5.63;2.03;;;;;;;16.27;82.65;100660.06;7398182;19;19922;-64
2023/09/20 06:53:20;;;;;;;5.60;1.83;;;;;;;16.30;82.63;100643.31;7395043;19;20285;-64
2023/09/20 06:55:51;;;;;;;3.55;1.80;;;;;;;16.31;82.70;100656.69;7397072;19;19926;-64
2023/09/20 06:58:21;;;;;;;4.88;2.33;;;;;;;16.32;82.77;100658.34;7397979;19;20488;-64
2023/09/20 07:00:50;;;;;;;3.30;1.50;;;;;;;16.35;82.85;100651.66;7396545;19;19922;-64
2023/09/20 07:03:20;;;;;;;5.25;2.13;;;;;;;16.41;82.45;100660.78;7394364;19;20313;-64
2023/09/20 07:05:48;;;;;;;3.15;1.48;;;;;;;16.42;82.41;100655.16;7398196;19;19964;-64
2023/09/20 07:08:18;;;;;;;7.50;2.00;;;;;;;16.47;82.48;100655.34;7397101;19;19922;-64
2023/09/20 07:10:47;;;;;;;7.53;1.80;;;;;;;16.50;82.59;100662.19;7396354;19;19961;-64
2023/09/20 07:13:19;;;;;;;6.55;1.92;;;;;;;16.52;82.05;100657.38;7398243;19;19922;-65
2023/09/20 07:15:48;;;;;;;7.70;1.40;;;;;;;16.54;82.56;100647.94;7397244;19;19927;-64
2023/09/20 07:18:17;;;;;;;5.82;1.50;;;;;;;16.56;82.25;100651.28;7396023;19;19926;-64
2023/09/20 07:20:48;;;;;;;3.35;1.75;;;;;;;16.57;82.48;100660.25;7395155;19;19925;-64
2023/09/20 07:23:16;;;;;;;6.32;1.88;;;;;;;16.59;82.57;100658.19;7395855;19;19914;-64
2023/09/20 07:25:45;;;;;;;5.80;1.40;;;;;;;16.61;82.45;100664.25;7397054;19;19923;-64
2023/09/20 07:28:14;;;;;;;8.00;1.88;;;;;;;16.63;82.38;100662.97;7395830;19;20271;-63
2023/09/20 07:30:47;;;;;;;6.13;1.67;;;;;;;16.61;82.16;100656.91;7395700;19;19926;-64
2023/09/20 07:33:19;;;;;;;7.95;2.20;;;;;;;16.65;82.23;100660.03;7391013;19;20264;-64
2023/09/20 07:35:52;;;;;;;5.82;2.15;;;;;;;16.66;82.31;100658.97;7395250;19;19978;-63
2023/09/20 07:38:25;;;;;;;8.75;2.13;;;;;;;16.68;82.42;100657.69;7396578;19;19926;-64
2023/09/20 07:40:54;;;;;;;4.50;1.50;;;;;;;16.70;82.50;100658.28;7394623;19;20050;-63
2023/09/20 07:43:23;;;;;;;5.18;1.80;;;;;;;16.73;82.00;100649.72;7397322;19;20361;-64
2023/09/20 07:45:54;;;;;;;6.18;2.03;;;;;;;16.78;82.00;100641.69;7396033;19;19923;-64
2023/09/20 07:48:27;;;;;;;7.13;2.03;;;;;;;16.83;81.97;100640.22;7394648;19;20308;-64
2023/09/20 07:50:56;;;;;;;3.08;1.83;;;;;;;16.88;82.07;100640.34;7394924;19;19923;-64
2023/09/20 07:53:26;;;;;;;3.80;1.63;;;;;;;16.93;81.57;100633.19;7395790;19;20275;-64
2023/09/20 07:56:03;;;;;;;4.57;1.90;;;;;;;17.00;81.95;100635.88;7395817;19;20489;-64
2023/09/20 07:58:32;;;;;;;;;;;;;;;16.98;81.66;100657.00;7396054;19;19929;-64
2023/09/20 08:01:10;;;;;;;;;;;;;;;17.02;81.32;100641.91;7398002;19;19922;-66
2023/09/20 08:03:45;;;;;;;6.57;1.70;;;;;;;17.16;80.85;100649.72;7391405;19;19950;-64
2023/09/20 08:06:14;;;;;;;7.05;2.50;;;;;;;17.27;81.20;100641.84;7395479;19;19918;-64
2023/09/20 08:08:42;;;;;;;6.28;2.05;;;;;;;17.35;80.61;100638.81;7391975;19;20551;-64
2023/09/20 08:11:11;;;;;;;4.53;1.75;;;;;;;17.38;80.89;100641.94;7393875;19;19918;-64
2023/09/20 08:13:40;;;;;;;4.95;1.80;;;;;;;17.40;80.57;100642.53;7396007;19;19952;-64
2023/09/20 08:16:12;;;;;;;4.88;2.10;;;;;;;17.37;80.28;100658.50;7394984;19;19910;-64
2023/09/20 08:21:22;;;;;;;4.82;1.83;;;;;;;17.33;80.65;100657.28;7395166;19;20547;-64
2023/09/20 09:01:44;;;;;;;6.88;1.88;;;;;;;18.21;78.90;100698.56;7400576;19;19919;-64
2023/09/20 09:04:19;;;;;;;5.93;1.88;;;;;;;18.27;77.61;100689.44;7396230;19;19950;-65
2023/09/20 09:06:48;;;;;;;3.97;1.45;;;;;;;18.41;78.04;100680.00;7401171;19;19915;-64
2023/09/20 09:09:17;;;;;;;7.05;1.92;;;;;;;18.48;76.91;100686.19;7397505;19;19947;-64
2023/09/20 09:11:47;;;;;;;5.65;1.80;;;;;;;18.55;76.50;100701.41;7398452;19;19919;-63
2023/09/20 09:14:16;;;;;;;7.70;1.90;;;;;;;18.57;76.26;100687.53;7397496;19;19919;-64
2023/09/20 09:16:45;;;;;;;8.55;1.95;;;;;;;18.56;75.09;100694.06;7400773;19;19922;-64
2023/09/20 09:19:18;;;;;;;5.10;1.98;;;;;;;18.57;75.42;100676.63;7400233;19;19934;-64
2023/09/20 09:21:46;;;;;;;5.55;1.75;;;;;;;18.58;75.19;100673.69;7397717;19;19926;-64
2023/09/20 09:24:15;;;;;;;5.20;1.85;;;;;;;18.60;76.08;100678.88;7397408;19;19918;-64
2023/09/20 09:26:47;;;;;;;3.17;1.48;;;;;;;18.63;75.87;100685.78;7399955;19;19943;-64
2023/09/20 09:29:19;;;;;;;2.58;1.90;;;;;;;18.62;75.24;100689.56;7400459;19;19925;-64
2023/09/20 09:31:51;;;;;;;4.75;1.88;;;;;;;18.61;75.35;100686.00;7398691;19;19922;-64
2023/09/20 09:34:22;;;;;;;;;;;;;;;18.50;75.40;100703.16;7395813;19;19914;-64
2023/09/20 09:36:53;;;;;;;6.13;1.75;;;;;;;18.57;75.80;100682.94;7400134;19;19915;-64
2023/09/20 09:39:22;;;;;;;2.60;1.52;;;;;;;18.59;75.80;100693.63;7399906;19;19929;-64
2023/09/20 09:41:51;;;;;;;3.80;1.30;;;;;;;18.59;76.30;100685.44;7399322;19;19919;-64
2023/09/20 09:44:20;;;;;;;4.72;1.48;;;;;;;18.63;76.18;100686.63;7397663;19;19950;-64
2023/09/20 09:46:48;;;;;;;5.15;1.40;;;;;;;18.65;76.21;100673.56;7400017;19;19922;-64
2023/09/20 09:49:19;;;;;;;5.60;1.70;;;;;;;18.61;75.65;100672.38;7398982;19;19918;-64
2023/09/20 09:51:54;;;;;;;6.55;1.48;;;;;;;18.59;74.77;100688.16;7396132;19;19923;-64
2023/09/20 09:54:24;;;;;;;3.03;1.30;;;;;;;18.65;75.12;100679.03;7393622;19;19922;-64
2023/09/20 09:56:53;;;;;;;3.35;1.65;;;;;;;18.68;75.37;100673.09;7398934;19;19955;-64
2023/09/20 09:59:21;;;;;;;4.20;2.35;;;;;;;18.72;75.50;100673.47;7390861;19;19926;-64
2023/09/20 10:01:50;;;;;;;5.85;1.45;;;;;;;18.71;75.44;100683.56;7396317;19;19923;-64
2023/09/20 10:04:21;;;;;;;4.72;1.77;;;;;;;18.75;75.20;100675.72;7394655;19;20270;-64
2023/09/20 10:07:05;;;;;;;3.40;1.55;;;;;;;18.73;74.67;100684.13;7397520;19;19946;-64
2023/09/20 10:09:38;;;;;;;4.60;1.70;;;;;;;18.80;74.50;100684.03;7397015;19;20860;-64
2023/09/20 10:12:10;;;;;;;4.65;1.25;;;;;;;18.83;75.38;100687.13;7398540;19;19956;-64
2023/09/20 10:14:40;;;;;;;5.13;1.48;;;;;;;18.87;75.53;100685.59;7398662;19;20348;-64
2023/09/20 10:17:09;;;;;;;3.15;1.40;;;;;;;18.92;75.05;100682.97;7398487;19;19922;-64
2023/09/20 10:19:58;;;;;;;5.28;1.20;;;;;;;18.99;74.49;100680.13;7395650;19;20309;-64
2023/09/20 10:22:34;;;;;;;3.13;1.50;;;;;;;19.07;74.24;100679.75;7395582;19;19951;-64
2023/09/20 10:25:03;;;;;;;4.70;1.50;;;;;;;19.10;74.21;100673.84;7396025;19;19919;-64
2023/09/20 10:27:34;;;;;;;2.90;1.60;;;;;;;19.17;73.85;100668.25;7395254;19;19939;-64
2023/09/20 10:30:23;;;;;;;2.15;1.20;;;;;;;19.31;73.98;100675.13;7395788;19;19923;-64
2023/09/20 10:32:57;;;;;;;4.45;1.55;;;;;;;19.35;73.07;100676.31;7394558;19;19922;-64
2023/09/20 10:35:29;;;;;;;3.78;1.42;;;;;;;19.37;73.08;100674.19;7395367;19;19954;-64
2023/09/20 10:38:25;;;;;;;4.05;1.30;;;;;;;19.33;73.41;100682.00;7393295;19;19922;-65
2023/09/20 10:41:00;;;;;;;3.45;1.48;;;;;;;19.34;72.47;100659.09;7398858;19;19914;-64
2023/09/20 10:43:49;;;;;;;3.20;1.60;;;;;;;19.32;71.94;100672.19;7397599;19;19957;-64
2023/09/20 10:46:18;;;;;;;;;;;;;;;19.22;72.90;100668.38;7399169;19;19953;-64
2023/09/20 10:48:51;;;;;;;4.22;1.30;;;;;;;19.32;73.21;100666.72;7399145;19;19922;-65
2023/09/20 10:51:48;;;;;;;2.35;1.17;;;;;;;19.39;73.40;100669.31;7395894;19;19922;-64
2023/09/20 10:54:29;;;;;;;2.28;1.20;;;;;;;19.45;72.20;100677.44;7398009;19;19915;-64
2023/09/20 10:57:04;;;;;;;4.93;1.88;;;;;;;19.46;72.64;100667.31;7393471;19;19918;-64
2023/09/20 10:59:34;;;;;;;3.10;1.13;;;;;;;19.43;73.17;100663.16;7397339;19;20321;-64
2023/09/20 11:02:08;;;;;;;2.78;1.33;;;;;;;19.45;72.73;100661.03;7394705;19;20376;-64
2023/09/20 11:04:57;;;;;;;3.03;1.25;;;;;;;19.43;73.37;100663.16;7394496;19;19931;-65
2023/09/20 11:07:26;;;;;;;3.92;1.40;;;;;;;19.44;72.96;100664.81;7396507;19;20351;-64
2023/09/20 11:09:57;;;;;;;4.90;1.20;;;;;;;19.47;73.11;100667.06;7398206;19;19926;-64
2023/09/20 11:12:26;;;;;;;4.05;1.35;;;;;;;19.47;72.87;100668.97;7394844;19;19922;-65
2023/09/20 11:14:55;;;;;;;3.13;1.13;;;;;;;19.46;72.38;100672.75;7393135;19;20304;-65
2023/09/20 11:17:23;;;;;;;2.97;1.33;;;;;;;19.43;72.87;100660.44;7398793;19;19972;-65
2023/09/20 11:19:53;;;;;;;2.67;1.02;;;;;;;19.43;72.51;100656.88;7397612;19;19927;-65
2023/09/20 11:22:22;;;;;;;2.42;1.08;;;;;;;19.46;72.79;100653.63;7396048;19;19922;-65
2023/09/20 11:24:51;;;;;;;2.35;1.42;;;;;;;19.48;72.50;100670.63;7394248;19;19926;-64
2023/09/20 11:27:23;;;;;;;1.63;1.35;;;;;;;19.42;71.76;100658.72;7390196;19;19918;-65
2023/09/20 11:29:52;;;;;;;5.47;1.42;;;;;;;19.38;71.91;100665.75;7393533;19;19950;-65
2023/09/20 11:32:22;;;;;;;3.80;1.60;;;;;;;19.35;72.65;100655.31;7380225;19;19922;-65
2023/09/20 11:34:52;;;;;;;7.13;1.30;;;;;;;19.34;72.94;100652.81;7391042;19;20295;-65
2023/09/20 11:37:41;;;;;;;2.90;1.30;;;;;;;19.38;72.73;100675.84;7390674;19;20332;-64
2023/09/20 11:40:33;;;;;;;2.47;1.35;;;;;;;19.36;72.96;100653.41;7393826;19;19952;-65
2023/09/20 11:43:05;;;;;;;2.58;1.40;;;;;;;19.39;73.62;100663.84;7396159;19;19961;-65
2023/09/20 11:45:40;;;;;;;4.18;1.33;;;;;;;19.39;73.55;100656.47;7395561;19;20363;-64
2023/09/20 11:48:12;;;;;;;2.53;1.17;;;;;;;19.40;73.96;100651.84;7393913;19;19926;-65
2023/09/20 11:50:45;;;;;;;;;;;;;;;19.36;73.54;100658.88;7394847;19;19925;-64
2023/09/20 11:53:17;;;;;;;1.38;1.00;;;;;;;19.49;72.21;100655.91;7395286;19;19926;-65
2023/09/20 11:56:06;;;;;;;2.97;1.20;;;;;;;19.50;72.68;100652.13;7391710;19;19925;-65
2023/09/20 11:58:38;;;;;;;4.45;1.67;;;;;;;19.54;72.41;100655.19;7388089;19;19933;-65
2023/09/20 12:01:09;;;;;;;2.88;1.23;;;;;;;19.62;72.35;100661.13;7393775;19;19927;-64
2023/09/20 12:03:38;;;;;;;2.80;1.35;;;;;;;19.57;72.79;100663.72;7387615;19;20456;-65
2023/09/20 12:06:08;;;;;;;2.80;1.40;;;;;;;19.60;72.65;100651.47;7391717;19;20534;-65
2023/09/20 12:08:37;;;;;;;4.53;1.38;;;;;;;19.61;72.79;100656.72;7393224;19;19933;-65
2023/09/20 12:11:07;;;;;;;4.18;1.35;;;;;;;19.63;72.32;100659.22;7394845;19;19937;-64
2023/09/20 12:13:38;;;;;;;3.58;1.30;;;;;;;19.65;71.87;100643.38;7395023;19;19923;-64
2023/09/20 12:16:08;;;;;;;2.92;1.13;;;;;;;19.75;72.11;100643.59;7396380;19;19918;-65
2023/09/20 12:18:37;;;;;;;4.30;1.38;;;;;;;19.81;71.76;100640.72;7397415;19;19923;-65
2023/09/20 12:21:07;;;;;;;4.82;1.48;;;;;;;19.84;71.24;100639.41;7399400;19;19930;-65
2023/09/20 12:23:36;;;;;;;3.85;1.50;;;;;;;19.88;70.84;100646.06;7401234;19;19922;-64
2023/09/20 12:26:05;;;;;;;2.72;1.10;;;;;;;19.92;70.68;100628.09;7398505;19;19939;-65